sensor_id;sensor_type;location;lat;lon;timestamp;P1;durP1;ratioP1;P2;durP2;ratioP2
29550;SDS011;16488;52.396;10.696;2023-07-13T00:02:05;11.07;;;5.57;;
29550;SDS011;16488;52.396;10.696;2023-07-13T00:04:31;10.88;;;6.15;;
29550;SDS011;16488;52.396;10.696;2023-07-13T00:06:57;10.97;;;5.97;;
29550;SDS011;16488;52.396;10.696;2023-07-13T00:09:23;11.68;;;5.53;;
29550;SDS011;16488;52.396;10.696;2023-07-13T00:11:54;14.10;;;5.72;;
29550;SDS011;16488;52.396;10.696;2023-07-13T00:14:21;9.15;;;5.78;;
29550;SDS011;16488;52.396;10.696;2023-07-13T00:16:48;13.65;;;5.78;;
29550;SDS011;16488;52.396;10.696;2023-07-13T00:19:14;8.70;;;5.78;;
29550;SDS011;16488;52.396;10.696;2023-07-13T00:21:40;13.85;;;6.65;;
29550;SDS011;16488;52.396;10.696;2023-07-13T00:24:07;8.43;;;5.97;;
29550;SDS011;16488;52.396;10.696;2023-07-13T00:26:37;8.88;;;6.10;;
29550;SDS011;16488;52.396;10.696;2023-07-13T00:29:03;9.50;;;6.13;;
29550;SDS011;16488;52.396;10.696;2023-07-13T00:31:33;11.63;;;6.03;;
29550;SDS011;16488;52.396;10.696;2023-07-13T00:33:59;13.10;;;6.18;;
29550;SDS011;16488;52.396;10.696;2023-07-13T00:36:25;13.67;;;6.27;;
29550;SDS011;16488;52.396;10.696;2023-07-13T00:38:51;10.35;;;6.03;;
29550;SDS011;16488;52.396;10.696;2023-07-13T00:41:17;10.38;;;6.72;;
29550;SDS011;16488;52.396;10.696;2023-07-13T00:43:43;15.23;;;5.88;;
29550;SDS011;16488;52.396;10.696;2023-07-13T00:46:28;14.25;;;6.20;;
29550;SDS011;16488;52.396;10.696;2023-07-13T00:48:57;9.73;;;5.60;;
29550;SDS011;16488;52.396;10.696;2023-07-13T00:51:29;10.73;;;5.53;;
29550;SDS011;16488;52.396;10.696;2023-07-13T00:53:59;11.57;;;5.43;;
29550;SDS011;16488;52.396;10.696;2023-07-13T00:56:28;8.35;;;5.13;;
29550;SDS011;16488;52.396;10.696;2023-07-13T00:58:54;13.93;;;5.78;;
29550;SDS011;16488;52.396;10.696;2023-07-13T01:01:21;12.30;;;5.55;;
29550;SDS011;16488;52.396;10.696;2023-07-13T01:03:47;9.68;;;5.03;;
29550;SDS011;16488;52.396;10.696;2023-07-13T01:06:13;9.98;;;5.13;;
29550;SDS011;16488;52.396;10.696;2023-07-13T01:08:38;8.65;;;5.32;;
29550;SDS011;16488;52.396;10.696;2023-07-13T01:11:05;7.15;;;5.32;;
29550;SDS011;16488;52.396;10.696;2023-07-13T01:13:30;7.57;;;5.93;;
29550;SDS011;16488;52.396;10.696;2023-07-13T01:15:56;10.20;;;5.63;;
29550;SDS011;16488;52.396;10.696;2023-07-13T01:18:26;10.45;;;5.57;;
29550;SDS011;16488;52.396;10.696;2023-07-13T01:20:54;9.60;;;5.75;;
29550;SDS011;16488;52.396;10.696;2023-07-13T01:23:24;19.05;;;5.72;;
29550;SDS011;16488;52.396;10.696;2023-07-13T01:25:51;9.20;;;5.20;;
29550;SDS011;16488;52.396;10.696;2023-07-13T01:28:18;11.45;;;5.65;;
29550;SDS011;16488;52.396;10.696;2023-07-13T01:30:45;9.43;;;5.10;;
29550;SDS011;16488;52.396;10.696;2023-07-13T01:33:12;10.77;;;5.25;;
29550;SDS011;16488;52.396;10.696;2023-07-13T01:35:39;8.80;;;4.65;;
29550;SDS011;16488;52.396;10.696;2023-07-13T01:38:05;9.65;;;5.43;;
29550;SDS011;16488;52.396;10.696;2023-07-13T01:40:30;13.47;;;4.70;;
29550;SDS011;16488;52.396;10.696;2023-07-13T01:42:57;8.68;;;4.82;;
29550;SDS011;16488;52.396;10.696;2023-07-13T01:45:23;6.72;;;4.45;;
29550;SDS011;16488;52.396;10.696;2023-07-13T01:47:49;11.07;;;5.00;;
29550;SDS011;16488;52.396;10.696;2023-07-13T01:50:14;11.07;;;5.00;;
29550;SDS011;16488;52.396;10.696;2023-07-13T01:52:40;10.15;;;5.60;;
29550;SDS011;16488;52.396;10.696;2023-07-13T01:55:06;7.57;;;4.73;;
29550;SDS011;16488;52.396;10.696;2023-07-13T01:57:32;10.05;;;4.70;;
29550;SDS011;16488;52.396;10.696;2023-07-13T01:59:58;11.73;;;5.13;;
29550;SDS011;16488;52.396;10.696;2023-07-13T02:02:24;11.23;;;4.95;;
29550;SDS011;16488;52.396;10.696;2023-07-13T02:04:49;6.38;;;4.38;;
29550;SDS011;16488;52.396;10.696;2023-07-13T02:07:15;9.20;;;5.07;;
29550;SDS011;16488;52.396;10.696;2023-07-13T02:09:40;14.47;;;5.13;;
29550;SDS011;16488;52.396;10.696;2023-07-13T02:14:32;13.60;;;5.43;;
29550;SDS011;16488;52.396;10.696;2023-07-13T02:16:58;9.18;;;5.60;;
29550;SDS011;16488;52.396;10.696;2023-07-13T02:19:24;7.63;;;5.20;;
29550;SDS011;16488;52.396;10.696;2023-07-13T02:21:49;9.67;;;4.93;;
29550;SDS011;16488;52.396;10.696;2023-07-13T02:24:15;5.68;;;4.63;;
29550;SDS011;16488;52.396;10.696;2023-07-13T02:26:43;10.93;;;5.68;;
29550;SDS011;16488;52.396;10.696;2023-07-13T02:29:09;10.60;;;4.68;;
29550;SDS011;16488;52.396;10.696;2023-07-13T02:31:35;8.13;;;4.47;;
29550;SDS011;16488;52.396;10.696;2023-07-13T02:34:01;14.23;;;5.20;;
29550;SDS011;16488;52.396;10.696;2023-07-13T02:36:27;16.67;;;5.70;;
29550;SDS011;16488;52.396;10.696;2023-07-13T02:38:53;8.63;;;4.85;;
29550;SDS011;16488;52.396;10.696;2023-07-13T02:41:19;15.37;;;5.13;;
29550;SDS011;16488;52.396;10.696;2023-07-13T02:43:44;6.97;;;4.88;;
29550;SDS011;16488;52.396;10.696;2023-07-13T02:46:10;8.77;;;4.80;;
29550;SDS011;16488;52.396;10.696;2023-07-13T02:48:36;7.23;;;4.23;;
29550;SDS011;16488;52.396;10.696;2023-07-13T02:51:03;13.10;;;5.75;;
29550;SDS011;16488;52.396;10.696;2023-07-13T02:53:29;8.52;;;5.50;;
29550;SDS011;16488;52.396;10.696;2023-07-13T02:55:54;8.52;;;5.55;;
29550;SDS011;16488;52.396;10.696;2023-07-13T02:58:20;15.38;;;4.93;;
29550;SDS011;16488;52.396;10.696;2023-07-13T03:00:46;8.23;;;5.90;;
29550;SDS011;16488;52.396;10.696;2023-07-13T03:03:12;7.40;;;4.78;;
29550;SDS011;16488;52.396;10.696;2023-07-13T03:05:40;10.63;;;5.20;;
29550;SDS011;16488;52.396;10.696;2023-07-13T03:08:10;10.95;;;4.72;;
29550;SDS011;16488;52.396;10.696;2023-07-13T03:10:36;14.85;;;5.40;;
29550;SDS011;16488;52.396;10.696;2023-07-13T03:13:04;11.63;;;4.10;;
29550;SDS011;16488;52.396;10.696;2023-07-13T03:15:30;10.43;;;4.50;;
29550;SDS011;16488;52.396;10.696;2023-07-13T03:17:55;8.70;;;4.80;;
29550;SDS011;16488;52.396;10.696;2023-07-13T03:20:21;8.03;;;4.90;;
29550;SDS011;16488;52.396;10.696;2023-07-13T03:22:47;9.83;;;5.07;;
29550;SDS011;16488;52.396;10.696;2023-07-13T03:25:12;12.80;;;4.63;;
29550;SDS011;16488;52.396;10.696;2023-07-13T03:27:38;7.63;;;4.93;;
29550;SDS011;16488;52.396;10.696;2023-07-13T03:30:04;10.00;;;5.17;;
29550;SDS011;16488;52.396;10.696;2023-07-13T03:32:30;13.15;;;5.28;;
29550;SDS011;16488;52.396;10.696;2023-07-13T03:34:56;11.30;;;5.50;;
29550;SDS011;16488;52.396;10.696;2023-07-13T03:37:22;10.13;;;6.03;;
29550;SDS011;16488;52.396;10.696;2023-07-13T03:42:14;10.75;;;5.18;;
29550;SDS011;16488;52.396;10.696;2023-07-13T03:44:40;11.80;;;5.75;;
29550;SDS011;16488;52.396;10.696;2023-07-13T03:47:06;9.25;;;5.45;;
29550;SDS011;16488;52.396;10.696;2023-07-13T03:49:33;10.57;;;5.35;;
29550;SDS011;16488;52.396;10.696;2023-07-13T03:51:59;14.32;;;5.68;;
29550;SDS011;16488;52.396;10.696;2023-07-13T03:54:25;10.38;;;5.22;;
29550;SDS011;16488;52.396;10.696;2023-07-13T03:56:51;13.43;;;5.00;;
29550;SDS011;16488;52.396;10.696;2023-07-13T03:59:16;10.80;;;5.60;;
29550;SDS011;16488;52.396;10.696;2023-07-13T04:01:43;10.43;;;5.00;;
29550;SDS011;16488;52.396;10.696;2023-07-13T04:04:09;15.43;;;5.57;;
29550;SDS011;16488;52.396;10.696;2023-07-13T04:06:34;13.37;;;5.13;;
29550;SDS011;16488;52.396;10.696;2023-07-13T04:09:00;9.52;;;4.78;;
29550;SDS011;16488;52.396;10.696;2023-07-13T04:11:29;12.60;;;5.07;;
29550;SDS011;16488;52.396;10.696;2023-07-13T04:13:56;6.75;;;3.95;;
29550;SDS011;16488;52.396;10.696;2023-07-13T04:16:22;10.02;;;4.72;;
29550;SDS011;16488;52.396;10.696;2023-07-13T04:18:48;6.85;;;4.60;;
29550;SDS011;16488;52.396;10.696;2023-07-13T04:21:15;10.52;;;4.40;;
29550;SDS011;16488;52.396;10.696;2023-07-13T04:23:40;8.30;;;5.38;;
29550;SDS011;16488;52.396;10.696;2023-07-13T04:26:06;12.67;;;4.30;;
29550;SDS011;16488;52.396;10.696;2023-07-13T04:28:32;9.30;;;4.45;;
29550;SDS011;16488;52.396;10.696;2023-07-13T04:30:58;7.72;;;4.22;;
29550;SDS011;16488;52.396;10.696;2023-07-13T04:33:24;12.10;;;4.50;;
29550;SDS011;16488;52.396;10.696;2023-07-13T04:35:51;8.50;;;3.90;;
29550;SDS011;16488;52.396;10.696;2023-07-13T04:38:19;7.65;;;4.93;;
29550;SDS011;16488;52.396;10.696;2023-07-13T04:40:45;10.07;;;4.82;;
29550;SDS011;16488;52.396;10.696;2023-07-13T04:43:11;8.85;;;4.18;;
29550;SDS011;16488;52.396;10.696;2023-07-13T04:45:37;11.63;;;4.40;;
29550;SDS011;16488;52.396;10.696;2023-07-13T04:48:02;7.80;;;4.97;;
29550;SDS011;16488;52.396;10.696;2023-07-13T04:50:28;9.27;;;3.92;;
29550;SDS011;16488;52.396;10.696;2023-07-13T04:52:54;9.47;;;3.60;;
29550;SDS011;16488;52.396;10.696;2023-07-13T04:55:19;11.40;;;5.43;;
29550;SDS011;16488;52.396;10.696;2023-07-13T04:57:46;6.68;;;3.67;;
29550;SDS011;16488;52.396;10.696;2023-07-13T05:00:12;11.65;;;4.50;;
29550;SDS011;16488;52.396;10.696;2023-07-13T05:02:40;11.10;;;4.47;;
29550;SDS011;16488;52.396;10.696;2023-07-13T05:05:08;12.85;;;4.38;;
29550;SDS011;16488;52.396;10.696;2023-07-13T05:07:33;9.27;;;4.22;;
29550;SDS011;16488;52.396;10.696;2023-07-13T05:09:59;7.80;;;3.73;;
29550;SDS011;16488;52.396;10.696;2023-07-13T05:12:25;9.45;;;3.95;;
29550;SDS011;16488;52.396;10.696;2023-07-13T05:14:51;8.90;;;3.83;;
29550;SDS011;16488;52.396;10.696;2023-07-13T05:17:17;5.90;;;4.40;;
29550;SDS011;16488;52.396;10.696;2023-07-13T05:19:42;13.07;;;4.07;;
29550;SDS011;16488;52.396;10.696;2023-07-13T05:22:08;8.85;;;3.33;;
29550;SDS011;16488;52.396;10.696;2023-07-13T05:24:34;14.57;;;4.17;;
29550;SDS011;16488;52.396;10.696;2023-07-13T05:26:59;13.35;;;3.60;;
29550;SDS011;16488;52.396;10.696;2023-07-13T05:29:25;7.85;;;3.00;;
29550;SDS011;16488;52.396;10.696;2023-07-13T05:31:51;5.80;;;2.75;;
29550;SDS011;16488;52.396;10.696;2023-07-13T05:34:16;5.63;;;2.30;;
29550;SDS011;16488;52.396;10.696;2023-07-13T05:36:42;11.70;;;3.40;;
29550;SDS011;16488;52.396;10.696;2023-07-13T05:39:08;8.65;;;2.83;;
29550;SDS011;16488;52.396;10.696;2023-07-13T05:41:34;7.60;;;2.63;;
29550;SDS011;16488;52.396;10.696;2023-07-13T05:44:00;6.93;;;3.30;;
29550;SDS011;16488;52.396;10.696;2023-07-13T05:46:26;7.50;;;3.40;;
29550;SDS011;16488;52.396;10.696;2023-07-13T05:48:52;14.18;;;3.10;;
29550;SDS011;16488;52.396;10.696;2023-07-13T05:51:17;7.38;;;2.65;;
29550;SDS011;16488;52.396;10.696;2023-07-13T05:53:43;11.47;;;3.07;;
29550;SDS011;16488;52.396;10.696;2023-07-13T05:56:09;6.53;;;2.72;;
29550;SDS011;16488;52.396;10.696;2023-07-13T05:58:34;14.52;;;3.20;;
29550;SDS011;16488;52.396;10.696;2023-07-13T06:01:04;11.35;;;2.70;;
29550;SDS011;16488;52.396;10.696;2023-07-13T06:03:32;15.15;;;2.97;;
29550;SDS011;16488;52.396;10.696;2023-07-13T06:08:25;18.38;;;2.45;;
29550;SDS011;16488;52.396;10.696;2023-07-13T06:10:51;13.82;;;2.90;;
29550;SDS011;16488;52.396;10.696;2023-07-13T06:13:17;10.55;;;2.70;;
29550;SDS011;16488;52.396;10.696;2023-07-13T06:15:47;11.05;;;2.60;;
29550;SDS011;16488;52.396;10.696;2023-07-13T06:18:16;8.10;;;2.58;;
29550;SDS011;16488;52.396;10.696;2023-07-13T06:20:42;12.73;;;2.60;;
29550;SDS011;16488;52.396;10.696;2023-07-13T06:23:07;11.13;;;2.70;;
29550;SDS011;16488;52.396;10.696;2023-07-13T06:25:33;9.88;;;2.95;;
29550;SDS011;16488;52.396;10.696;2023-07-13T06:27:59;8.45;;;2.35;;
29550;SDS011;16488;52.396;10.696;2023-07-13T06:30:25;14.68;;;3.20;;
29550;SDS011;16488;52.396;10.696;2023-07-13T06:32:51;7.00;;;3.03;;
29550;SDS011;16488;52.396;10.696;2023-07-13T06:35:17;12.02;;;3.55;;
29550;SDS011;16488;52.396;10.696;2023-07-13T06:37:43;9.80;;;2.07;;
29550;SDS011;16488;52.396;10.696;2023-07-13T06:40:09;7.67;;;2.83;;
29550;SDS011;16488;52.396;10.696;2023-07-13T06:42:34;10.15;;;2.47;;
29550;SDS011;16488;52.396;10.696;2023-07-13T06:45:00;13.20;;;3.20;;
29550;SDS011;16488;52.396;10.696;2023-07-13T06:47:26;7.57;;;2.72;;
29550;SDS011;16488;52.396;10.696;2023-07-13T06:49:52;10.65;;;2.60;;
29550;SDS011;16488;52.396;10.696;2023-07-13T06:52:17;14.00;;;3.60;;
29550;SDS011;16488;52.396;10.696;2023-07-13T06:54:43;14.03;;;2.73;;
29550;SDS011;16488;52.396;10.696;2023-07-13T06:57:08;20.88;;;3.83;;
29550;SDS011;16488;52.396;10.696;2023-07-13T06:59:34;13.02;;;2.67;;
29550;SDS011;16488;52.396;10.696;2023-07-13T07:02:00;7.73;;;2.60;;
29550;SDS011;16488;52.396;10.696;2023-07-13T07:04:25;14.45;;;3.83;;
29550;SDS011;16488;52.396;10.696;2023-07-13T07:06:51;11.80;;;2.67;;
29550;SDS011;16488;52.396;10.696;2023-07-13T07:09:17;10.75;;;2.83;;
29550;SDS011;16488;52.396;10.696;2023-07-13T07:11:43;8.93;;;2.28;;
29550;SDS011;16488;52.396;10.696;2023-07-13T07:14:08;13.32;;;2.78;;
29550;SDS011;16488;52.396;10.696;2023-07-13T07:16:34;14.93;;;2.50;;
29550;SDS011;16488;52.396;10.696;2023-07-13T07:18:59;14.77;;;3.00;;
29550;SDS011;16488;52.396;10.696;2023-07-13T07:21:25;15.38;;;2.28;;
29550;SDS011;16488;52.396;10.696;2023-07-13T07:23:52;14.50;;;4.00;;
29550;SDS011;16488;52.396;10.696;2023-07-13T07:26:17;14.60;;;2.78;;
29550;SDS011;16488;52.396;10.696;2023-07-13T07:28:43;16.92;;;3.28;;
29550;SDS011;16488;52.396;10.696;2023-07-13T07:31:09;19.77;;;2.95;;
29550;SDS011;16488;52.396;10.696;2023-07-13T07:33:35;10.90;;;2.67;;
29550;SDS011;16488;52.396;10.696;2023-07-13T07:36:01;7.90;;;2.78;;
29550;SDS011;16488;52.396;10.696;2023-07-13T07:38:27;12.05;;;2.85;;
29550;SDS011;16488;52.396;10.696;2023-07-13T07:40:52;8.65;;;3.72;;
29550;SDS011;16488;52.396;10.696;2023-07-13T07:43:18;23.42;;;4.20;;
29550;SDS011;16488;52.396;10.696;2023-07-13T07:45:44;15.13;;;5.15;;
29550;SDS011;16488;52.396;10.696;2023-07-13T07:48:11;9.70;;;3.58;;
29550;SDS011;16488;52.396;10.696;2023-07-13T07:50:37;14.70;;;3.10;;
29550;SDS011;16488;52.396;10.696;2023-07-13T07:53:03;11.88;;;3.70;;
29550;SDS011;16488;52.396;10.696;2023-07-13T07:55:32;15.52;;;3.83;;
29550;SDS011;16488;52.396;10.696;2023-07-13T07:57:59;14.05;;;2.90;;
29550;SDS011;16488;52.396;10.696;2023-07-13T08:00:25;14.05;;;5.35;;
29550;SDS011;16488;52.396;10.696;2023-07-13T08:02:51;16.25;;;3.85;;
29550;SDS011;16488;52.396;10.696;2023-07-13T08:05:17;10.45;;;3.17;;
29550;SDS011;16488;52.396;10.696;2023-07-13T08:07:43;10.45;;;3.47;;
29550;SDS011;16488;52.396;10.696;2023-07-13T08:10:09;11.73;;;2.78;;
29550;SDS011;16488;52.396;10.696;2023-07-13T08:12:35;12.98;;;3.45;;
29550;SDS011;16488;52.396;10.696;2023-07-13T08:15:02;14.60;;;3.00;;
29550;SDS011;16488;52.396;10.696;2023-07-13T08:17:28;7.10;;;2.35;;
29550;SDS011;16488;52.396;10.696;2023-07-13T08:19:54;18.27;;;3.00;;
29550;SDS011;16488;52.396;10.696;2023-07-13T08:22:20;7.85;;;2.35;;
29550;SDS011;16488;52.396;10.696;2023-07-13T08:24:46;8.73;;;1.98;;
29550;SDS011;16488;52.396;10.696;2023-07-13T08:27:12;13.70;;;2.35;;
29550;SDS011;16488;52.396;10.696;2023-07-13T08:29:38;7.53;;;2.13;;
29550;SDS011;16488;52.396;10.696;2023-07-13T08:32:05;5.57;;;2.17;;
29550;SDS011;16488;52.396;10.696;2023-07-13T08:34:34;11.23;;;2.30;;
29550;SDS011;16488;52.396;10.696;2023-07-13T08:37:00;9.70;;;2.78;;
29550;SDS011;16488;52.396;10.696;2023-07-13T08:39:26;4.93;;;2.05;;
29550;SDS011;16488;52.396;10.696;2023-07-13T08:41:54;8.20;;;3.35;;
29550;SDS011;16488;52.396;10.696;2023-07-13T08:47:36;4.10;;;2.00;;
29550;SDS011;16488;52.396;10.696;2023-07-13T08:50:05;11.18;;;2.45;;
29550;SDS011;16488;52.396;10.696;2023-07-13T08:52:40;8.25;;;3.28;;
29550;SDS011;16488;52.396;10.696;2023-07-13T08:55:15;6.82;;;2.78;;
29550;SDS011;16488;52.396;10.696;2023-07-13T08:57:41;5.85;;;2.22;;
29550;SDS011;16488;52.396;10.696;2023-07-13T09:00:10;11.00;;;2.75;;
29550;SDS011;16488;52.396;10.696;2023-07-13T09:02:49;9.95;;;2.70;;
29550;SDS011;16488;52.396;10.696;2023-07-13T09:05:27;7.65;;;2.65;;
29550;SDS011;16488;52.396;10.696;2023-07-13T09:10:46;12.38;;;2.83;;
29550;SDS011;16488;52.396;10.696;2023-07-13T09:15:51;11.48;;;3.05;;
29550;SDS011;16488;52.396;10.696;2023-07-13T09:20:53;9.30;;;2.92;;
29550;SDS011;16488;52.396;10.696;2023-07-13T09:23:24;8.60;;;2.45;;
29550;SDS011;16488;52.396;10.696;2023-07-13T09:26:00;10.88;;;3.55;;
29550;SDS011;16488;52.396;10.696;2023-07-13T09:28:28;7.53;;;2.83;;
29550;SDS011;16488;52.396;10.696;2023-07-13T09:31:00;12.68;;;2.25;;
29550;SDS011;16488;52.396;10.696;2023-07-13T09:33:30;9.48;;;2.88;;
29550;SDS011;16488;52.396;10.696;2023-07-13T09:35:59;6.82;;;2.58;;
29550;SDS011;16488;52.396;10.696;2023-07-13T09:38:26;6.95;;;2.30;;
29550;SDS011;16488;52.396;10.696;2023-07-13T09:40:58;9.48;;;2.50;;
29550;SDS011;16488;52.396;10.696;2023-07-13T09:43:37;9.85;;;2.30;;
29550;SDS011;16488;52.396;10.696;2023-07-13T09:46:03;4.03;;;1.98;;
29550;SDS011;16488;52.396;10.696;2023-07-13T09:48:33;7.13;;;2.50;;
29550;SDS011;16488;52.396;10.696;2023-07-13T09:51:13;4.35;;;1.90;;
29550;SDS011;16488;52.396;10.696;2023-07-13T09:53:41;8.30;;;2.45;;
29550;SDS011;16488;52.396;10.696;2023-07-13T09:58:48;7.78;;;2.33;;
29550;SDS011;16488;52.396;10.696;2023-07-13T10:01:14;6.90;;;2.05;;
29550;SDS011;16488;52.396;10.696;2023-07-13T10:03:42;7.40;;;2.35;;
29550;SDS011;16488;52.396;10.696;2023-07-13T10:06:20;8.05;;;2.20;;
29550;SDS011;16488;52.396;10.696;2023-07-13T10:08:47;9.45;;;2.22;;
29550;SDS011;16488;52.396;10.696;2023-07-13T10:11:19;7.45;;;1.88;;
29550;SDS011;16488;52.396;10.696;2023-07-13T10:13:48;7.50;;;2.03;;
29550;SDS011;16488;52.396;10.696;2023-07-13T10:16:15;11.07;;;2.70;;
29550;SDS011;16488;52.396;10.696;2023-07-13T10:21:18;9.80;;;2.10;;
29550;SDS011;16488;52.396;10.696;2023-07-13T10:23:53;5.22;;;1.73;;
29550;SDS011;16488;52.396;10.696;2023-07-13T10:26:26;5.15;;;2.47;;
29550;SDS011;16488;52.396;10.696;2023-07-13T10:28:56;6.28;;;2.15;;
29550;SDS011;16488;52.396;10.696;2023-07-13T10:31:25;4.72;;;1.80;;
29550;SDS011;16488;52.396;10.696;2023-07-13T10:33:51;8.43;;;2.10;;
29550;SDS011;16488;52.396;10.696;2023-07-13T10:36:28;6.45;;;1.80;;
29550;SDS011;16488;52.396;10.696;2023-07-13T10:38:55;7.03;;;1.55;;
29550;SDS011;16488;52.396;10.696;2023-07-13T10:41:24;8.68;;;2.15;;
29550;SDS011;16488;52.396;10.696;2023-07-13T10:43:53;6.10;;;2.20;;
29550;SDS011;16488;52.396;10.696;2023-07-13T10:46:22;7.32;;;2.45;;
29550;SDS011;16488;52.396;10.696;2023-07-13T10:49:00;6.75;;;1.58;;
29550;SDS011;16488;52.396;10.696;2023-07-13T10:51:29;5.45;;;2.05;;
29550;SDS011;16488;52.396;10.696;2023-07-13T10:56:42;9.35;;;2.08;;
29550;SDS011;16488;52.396;10.696;2023-07-13T11:04:38;7.85;;;2.13;;
29550;SDS011;16488;52.396;10.696;2023-07-13T11:07:51;7.03;;;1.75;;
29550;SDS011;16488;52.396;10.696;2023-07-13T11:10:45;3.40;;;1.88;;
29550;SDS011;16488;52.396;10.696;2023-07-13T11:13:35;10.80;;;2.97;;
29550;SDS011;16488;52.396;10.696;2023-07-13T11:16:13;6.45;;;1.88;;
29550;SDS011;16488;52.396;10.696;2023-07-13T11:18:48;9.25;;;2.47;;
29550;SDS011;16488;52.396;10.696;2023-07-13T11:23:52;5.03;;;1.67;;
29550;SDS011;16488;52.396;10.696;2023-07-13T11:26:38;7.15;;;2.00;;
29550;SDS011;16488;52.396;10.696;2023-07-13T11:29:53;6.03;;;2.20;;
29550;SDS011;16488;52.396;10.696;2023-07-13T11:31:57;7.85;;;2.33;;
29550;SDS011;16488;52.396;10.696;2023-07-13T11:34:30;6.20;;;2.00;;
29550;SDS011;16488;52.396;10.696;2023-07-13T11:37:00;7.03;;;1.80;;
29550;SDS011;16488;52.396;10.696;2023-07-13T11:39:30;4.68;;;2.30;;
29550;SDS011;16488;52.396;10.696;2023-07-13T11:42:00;5.18;;;1.80;;
29550;SDS011;16488;52.396;10.696;2023-07-13T11:44:32;9.68;;;2.30;;
29550;SDS011;16488;52.396;10.696;2023-07-13T11:47:00;5.32;;;2.40;;
29550;SDS011;16488;52.396;10.696;2023-07-13T11:49:43;7.97;;;2.33;;
29550;SDS011;16488;52.396;10.696;2023-07-13T11:52:12;5.72;;;2.10;;
29550;SDS011;16488;52.396;10.696;2023-07-13T11:54:56;4.75;;;1.70;;
29550;SDS011;16488;52.396;10.696;2023-07-13T11:57:29;7.28;;;2.42;;
29550;SDS011;16488;52.396;10.696;2023-07-13T11:59:59;5.72;;;1.65;;
29550;SDS011;16488;52.396;10.696;2023-07-13T12:02:28;10.77;;;2.30;;
29550;SDS011;16488;52.396;10.696;2023-07-13T12:05:01;5.30;;;1.80;;
29550;SDS011;16488;52.396;10.696;2023-07-13T12:07:29;5.80;;;2.53;;
29550;SDS011;16488;52.396;10.696;2023-07-13T12:10:00;7.93;;;1.88;;
29550;SDS011;16488;52.396;10.696;2023-07-13T12:12:36;6.40;;;2.15;;
29550;SDS011;16488;52.396;10.696;2023-07-13T12:15:06;6.10;;;2.08;;
29550;SDS011;16488;52.396;10.696;2023-07-13T12:17:33;4.75;;;1.70;;
29550;SDS011;16488;52.396;10.696;2023-07-13T12:20:00;5.15;;;1.55;;
29550;SDS011;16488;52.396;10.696;2023-07-13T12:22:31;7.53;;;1.90;;
29550;SDS011;16488;52.396;10.696;2023-07-13T12:24:59;8.05;;;1.90;;
29550;SDS011;16488;52.396;10.696;2023-07-13T12:27:26;4.68;;;1.95;;
29550;SDS011;16488;52.396;10.696;2023-07-13T12:30:00;3.20;;;1.63;;
29550;SDS011;16488;52.396;10.696;2023-07-13T12:32:30;7.63;;;2.00;;
29550;SDS011;16488;52.396;10.696;2023-07-13T12:35:17;8.52;;;1.52;;
29550;SDS011;16488;52.396;10.696;2023-07-13T12:37:44;7.00;;;1.40;;
29550;SDS011;16488;52.396;10.696;2023-07-13T12:40:18;12.95;;;2.03;;
29550;SDS011;16488;52.396;10.696;2023-07-13T12:42:48;3.22;;;1.70;;
29550;SDS011;16488;52.396;10.696;2023-07-13T12:45:18;3.80;;;1.25;;
29550;SDS011;16488;52.396;10.696;2023-07-13T12:47:50;5.45;;;1.90;;
29550;SDS011;16488;52.396;10.696;2023-07-13T12:50:20;4.72;;;1.70;;
29550;SDS011;16488;52.396;10.696;2023-07-13T12:52:51;4.65;;;1.60;;
29550;SDS011;16488;52.396;10.696;2023-07-13T12:55:19;7.43;;;1.95;;
29550;SDS011;16488;52.396;10.696;2023-07-13T12:57:50;7.25;;;1.75;;
29550;SDS011;16488;52.396;10.696;2023-07-13T13:02:48;3.95;;;1.80;;
29550;SDS011;16488;52.396;10.696;2023-07-13T13:05:15;11.05;;;2.33;;
29550;SDS011;16488;52.396;10.696;2023-07-13T13:07:41;3.08;;;1.67;;
29550;SDS011;16488;52.396;10.696;2023-07-13T13:10:13;5.80;;;1.58;;
29550;SDS011;16488;52.396;10.696;2023-07-13T13:12:40;5.15;;;1.50;;
29550;SDS011;16488;52.396;10.696;2023-07-13T13:15:09;9.25;;;2.50;;
29550;SDS011;16488;52.396;10.696;2023-07-13T13:17:36;14.50;;;2.47;;
29550;SDS011;16488;52.396;10.696;2023-07-13T13:20:16;7.32;;;1.95;;
29550;SDS011;16488;52.396;10.696;2023-07-13T13:22:45;12.73;;;2.50;;
29550;SDS011;16488;52.396;10.696;2023-07-13T13:25:12;5.53;;;1.70;;
29550;SDS011;16488;52.396;10.696;2023-07-13T13:27:40;8.82;;;1.67;;
29550;SDS011;16488;52.396;10.696;2023-07-13T13:30:13;6.28;;;1.90;;
29550;SDS011;16488;52.396;10.696;2023-07-13T13:32:41;4.50;;;1.63;;
29550;SDS011;16488;52.396;10.696;2023-07-13T13:35:19;12.63;;;1.95;;
29550;SDS011;16488;52.396;10.696;2023-07-13T13:37:45;6.22;;;1.60;;
29550;SDS011;16488;52.396;10.696;2023-07-13T13:40:17;6.32;;;1.70;;
29550;SDS011;16488;52.396;10.696;2023-07-13T13:42:44;7.40;;;1.90;;
29550;SDS011;16488;52.396;10.696;2023-07-13T13:45:11;6.10;;;1.67;;
29550;SDS011;16488;52.396;10.696;2023-07-13T13:47:43;6.50;;;1.52;;
29550;SDS011;16488;52.396;10.696;2023-07-13T13:50:13;3.72;;;1.58;;
29550;SDS011;16488;52.396;10.696;2023-07-13T13:52:41;7.85;;;1.77;;
29550;SDS011;16488;52.396;10.696;2023-07-13T13:55:11;6.45;;;1.90;;
29550;SDS011;16488;52.396;10.696;2023-07-13T13:57:45;6.28;;;2.05;;
29550;SDS011;16488;52.396;10.696;2023-07-13T14:00:12;3.65;;;1.60;;
29550;SDS011;16488;52.396;10.696;2023-07-13T14:02:39;6.05;;;1.90;;
29550;SDS011;16488;52.396;10.696;2023-07-13T14:05:06;8.15;;;1.95;;
29550;SDS011;16488;52.396;10.696;2023-07-13T14:07:37;4.72;;;1.70;;
29550;SDS011;16488;52.396;10.696;2023-07-13T14:10:09;9.20;;;2.75;;
29550;SDS011;16488;52.396;10.696;2023-07-13T14:12:37;4.90;;;1.67;;
29550;SDS011;16488;52.396;10.696;2023-07-13T14:15:03;7.93;;;2.20;;
29550;SDS011;16488;52.396;10.696;2023-07-13T14:17:29;14.27;;;2.45;;
29550;SDS011;16488;52.396;10.696;2023-07-13T14:22:25;25.75;;;3.05;;
29550;SDS011;16488;52.396;10.696;2023-07-13T14:24:51;11.70;;;1.98;;
29550;SDS011;16488;52.396;10.696;2023-07-13T14:27:18;8.93;;;2.22;;
29550;SDS011;16488;52.396;10.696;2023-07-13T14:29:44;11.77;;;1.80;;
29550;SDS011;16488;52.396;10.696;2023-07-13T14:32:10;9.83;;;2.03;;
29550;SDS011;16488;52.396;10.696;2023-07-13T14:34:37;3.30;;;1.70;;
29550;SDS011;16488;52.396;10.696;2023-07-13T14:37:03;4.97;;;1.80;;
29550;SDS011;16488;52.396;10.696;2023-07-13T14:39:30;9.90;;;3.05;;
29550;SDS011;16488;52.396;10.696;2023-07-13T14:41:57;9.02;;;1.80;;
29550;SDS011;16488;52.396;10.696;2023-07-13T14:44:25;9.52;;;2.30;;
29550;SDS011;16488;52.396;10.696;2023-07-13T14:46:56;6.18;;;2.55;;
29550;SDS011;16488;52.396;10.696;2023-07-13T14:51:52;6.55;;;2.78;;
29550;SDS011;16488;52.396;10.696;2023-07-13T14:54:17;6.43;;;1.83;;
29550;SDS011;16488;52.396;10.696;2023-07-13T14:56:43;6.55;;;2.47;;
29550;SDS011;16488;52.396;10.696;2023-07-13T14:59:08;6.32;;;2.08;;
29550;SDS011;16488;52.396;10.696;2023-07-13T15:01:34;7.40;;;2.70;;
29550;SDS011;16488;52.396;10.696;2023-07-13T15:04:01;6.38;;;2.47;;
29550;SDS011;16488;52.396;10.696;2023-07-13T15:06:28;5.35;;;2.85;;
29550;SDS011;16488;52.396;10.696;2023-07-13T15:08:56;10.82;;;2.45;;
29550;SDS011;16488;52.396;10.696;2023-07-13T15:11:22;6.00;;;2.33;;
29550;SDS011;16488;52.396;10.696;2023-07-13T15:13:48;6.93;;;2.72;;
29550;SDS011;16488;52.396;10.696;2023-07-13T15:16:24;6.97;;;2.63;;